createdAt,value
2022-11-10T00:02:34.188Z,57.00
2022-11-10T00:05:21.322Z,57.30
2022-11-10T00:08:09.992Z,57.50
2022-11-10T00:11:01.514Z,57.40
2022-11-10T00:14:07.293Z,57.40
2022-11-10T00:17:04.689Z,57.40
2022-11-10T00:19:51.506Z,57.50
2022-11-10T00:22:39.807Z,57.80
2022-11-10T00:25:27.051Z,57.90
2022-11-10T00:28:13.928Z,58.00
2022-11-10T00:31:06.956Z,58.20
2022-11-10T00:33:54.034Z,58.30
2022-11-10T00:36:41.082Z,59.20
2022-11-10T00:39:28.288Z,59.50
2022-11-10T00:42:15.029Z,59.20
2022-11-10T00:45:01.762Z,59.10
2022-11-10T00:47:50.218Z,58.80
2022-11-10T00:50:36.887Z,58.50
2022-11-10T00:53:23.989Z,58.40
2022-11-10T00:56:11.172Z,58.50
2022-11-10T00:58:58.149Z,58.70
2022-11-10T01:01:46.944Z,58.90
2022-11-10T01:04:35.689Z,59.10
2022-11-10T01:07:22.584Z,59.20
2022-11-10T01:10:09.812Z,59.50
2022-11-10T01:12:56.830Z,59.60
2022-11-10T01:15:44.289Z,59.60
2022-11-10T01:18:31.006Z,59.60
2022-11-10T01:21:19.292Z,59.70
2022-11-10T01:24:06.571Z,59.80
2022-11-10T01:26:53.570Z,60.00
2022-11-10T01:29:40.236Z,59.90
2022-11-10T01:32:27.249Z,60.00
2022-11-10T01:35:14.144Z,60.20
2022-11-10T01:38:02.204Z,60.30
2022-11-10T01:40:49.135Z,60.40
2022-11-10T01:43:36.820Z,60.40
2022-11-10T01:46:23.486Z,60.60
2022-11-10T01:49:11.761Z,60.70
2022-11-10T01:52:01.862Z,60.90
2022-11-10T01:54:51.092Z,61.50
2022-11-10T01:57:38.079Z,61.00
2022-11-10T02:00:24.901Z,60.10
2022-11-10T02:03:14.276Z,59.80
2022-11-10T02:06:01.366Z,60.00
2022-11-10T02:08:48.497Z,60.20
2022-11-10T02:11:36.889Z,60.30
2022-11-10T02:14:23.736Z,60.40
2022-11-10T02:17:10.898Z,60.50
2022-11-10T02:19:59.995Z,60.70
2022-11-10T02:22:48.318Z,61.00
2022-11-10T02:25:35.197Z,61.10
2022-11-10T02:28:21.864Z,61.30
2022-11-10T02:31:09.413Z,61.70
2022-11-10T02:33:55.710Z,62.00
2022-11-10T02:36:42.161Z,62.00
2022-11-10T02:39:30.368Z,62.20
2022-11-10T02:42:17.185Z,62.30
2022-11-10T02:45:03.873Z,62.20
2022-11-10T02:47:50.703Z,62.10
2022-11-10T02:50:37.494Z,62.10
2022-11-10T02:53:24.324Z,62.10
2022-11-10T02:56:13.129Z,62.10
2022-11-10T02:58:59.830Z,62.10
2022-11-10T03:01:46.534Z,62.20
2022-11-10T03:04:33.090Z,62.50
2022-11-10T03:07:19.606Z,62.30
2022-11-10T03:10:06.622Z,62.40
2022-11-10T03:12:56.413Z,62.40
2022-11-10T03:15:43.040Z,62.30
2022-11-10T03:18:29.687Z,62.30
2022-11-10T03:21:16.613Z,62.30
2022-11-10T03:24:03.236Z,62.20
2022-11-10T03:26:49.998Z,62.20
2022-11-10T03:29:37.878Z,62.30
2022-11-10T03:32:24.658Z,62.10
2022-11-10T03:35:11.349Z,62.10
2022-11-10T03:37:57.971Z,62.30
2022-11-10T03:41:12.524Z,62.50
2022-11-10T03:43:51.594Z,62.70
2022-11-10T03:46:43.375Z,62.70
2022-11-10T03:49:30.013Z,62.70
2022-11-10T03:52:16.595Z,62.70
2022-11-10T03:55:03.821Z,62.50
2022-11-10T03:57:50.172Z,62.50
2022-11-10T04:00:36.704Z,62.50
2022-11-10T04:03:25.604Z,62.40
2022-11-10T04:06:29.849Z,62.40
2022-11-10T04:09:16.378Z,62.30
2022-11-10T04:12:24.633Z,62.20
2022-11-10T04:15:29.829Z,62.30
2022-11-10T04:18:24.704Z,62.40
2022-11-10T04:21:13.117Z,62.30
2022-11-10T04:23:59.854Z,62.30
2022-11-10T04:26:47.576Z,62.10
2022-11-10T04:29:33.979Z,62.00
2022-11-10T04:32:20.534Z,61.90
2022-11-10T04:35:07.238Z,61.70
2022-11-10T04:37:55.221Z,61.70
2022-11-10T04:40:41.927Z,61.90
2022-11-10T04:43:28.773Z,62.00
2022-11-10T04:46:20.665Z,62.10
2022-11-10T04:49:07.923Z,62.00
2022-11-10T04:51:54.532Z,62.00
2022-11-10T04:54:42.375Z,62.10
2022-11-10T04:57:29.005Z,62.20
2022-11-10T05:00:16.569Z,62.30
2022-11-10T05:03:03.619Z,62.20
2022-11-10T05:05:50.402Z,62.20
2022-11-10T05:08:37.129Z,62.30
2022-11-10T05:11:25.371Z,62.40
2022-11-10T05:14:12.392Z,62.40
2022-11-10T05:16:59.108Z,62.60
2022-11-10T05:19:47.355Z,62.70
2022-11-10T05:22:34.241Z,62.70
2022-11-10T05:25:20.572Z,62.70
2022-11-10T05:28:09.881Z,62.80
2022-11-10T05:30:56.740Z,62.70
2022-11-10T05:33:43.398Z,62.90
2022-11-10T05:36:30.206Z,62.90
2022-11-10T05:39:17.179Z,62.90
2022-11-10T05:42:03.963Z,62.90
2022-11-10T05:44:52.081Z,63.00
2022-11-10T05:47:39.382Z,63.00
2022-11-10T05:50:26.410Z,62.90
2022-11-10T05:53:13.143Z,63.10
2022-11-10T05:55:59.687Z,62.90
2022-11-10T05:58:46.564Z,62.90
2022-11-10T06:01:34.721Z,62.90
2022-11-10T06:04:21.321Z,63.10
2022-11-10T06:07:08.165Z,63.00
2022-11-10T06:09:55.273Z,63.10
2022-11-10T06:12:42.057Z,63.20
2022-11-10T06:15:29.289Z,63.20
2022-11-10T06:18:17.425Z,63.10
2022-11-10T06:21:04.163Z,63.50
2022-11-10T06:23:50.952Z,63.60
2022-11-10T06:26:37.989Z,63.60
2022-11-10T06:29:26.990Z,63.40
2022-11-10T06:32:13.912Z,63.60
2022-11-10T06:35:02.442Z,63.50
2022-11-10T06:37:59.066Z,63.50
2022-11-10T06:40:45.395Z,63.50
2022-11-10T06:43:32.446Z,63.50
2022-11-10T06:46:19.350Z,63.40
2022-11-10T06:49:06.641Z,63.70
2022-11-10T06:51:54.903Z,63.90
2022-11-10T06:54:41.869Z,63.90
2022-11-10T06:57:28.859Z,63.90
2022-11-10T07:00:17.008Z,63.90
2022-11-10T07:03:05.957Z,63.70
2022-11-10T07:05:52.590Z,63.60
2022-11-10T07:08:41.126Z,63.50
2022-11-10T07:11:28.033Z,63.60
2022-11-10T07:14:15.253Z,63.60
2022-11-10T07:17:02.279Z,63.60
2022-11-10T07:19:48.973Z,63.40
2022-11-10T07:22:35.946Z,63.40
2022-11-10T07:25:24.381Z,63.50
2022-11-10T07:28:11.659Z,63.00
2022-11-10T07:30:58.895Z,62.80
2022-11-10T07:33:51.900Z,62.90
2022-11-10T07:36:41.736Z,63.00
2022-11-10T07:39:28.632Z,62.90
2022-11-10T07:42:16.812Z,63.00
2022-11-10T07:45:03.816Z,63.20
2022-11-10T07:47:51.519Z,63.10
2022-11-10T07:50:38.294Z,63.30
2022-11-10T07:53:25.248Z,63.50
2022-11-10T07:56:12.077Z,63.30
2022-11-10T07:59:00.192Z,63.20
2022-11-10T08:01:47.318Z,63.20
2022-11-10T08:04:34.229Z,63.40
2022-11-10T08:07:20.925Z,63.20
2022-11-10T08:10:09.487Z,62.60
2022-11-10T08:12:57.147Z,61.70
2022-11-10T08:15:45.157Z,61.00
2022-11-10T08:18:35.281Z,61.20
2022-11-10T08:21:22.677Z,61.40
2022-11-10T08:24:10.299Z,61.90
2022-11-10T08:26:57.824Z,61.60
2022-11-10T08:29:44.491Z,62.20
2022-11-10T08:32:33.145Z,62.50
2022-11-10T08:35:20.068Z,62.50
2022-11-10T08:38:09.623Z,62.40
2022-11-10T08:40:57.796Z,62.50
2022-11-10T08:43:45.021Z,62.50
2022-11-10T08:46:31.715Z,62.80
2022-11-10T08:49:19.738Z,62.90
2022-11-10T08:52:06.448Z,61.30
2022-11-10T08:54:53.214Z,60.40
2022-11-10T08:57:39.882Z,60.00
2022-11-10T09:00:26.727Z,59.00
2022-11-10T09:03:15.988Z,58.40
2022-11-10T09:06:04.625Z,57.80
2022-11-10T09:08:51.622Z,57.10
2022-11-10T09:11:38.368Z,56.90
2022-11-10T09:14:25.399Z,56.70
2022-11-10T09:17:12.511Z,56.40
2022-11-10T09:19:59.638Z,56.00
2022-11-10T09:22:47.694Z,55.60
2022-11-10T09:25:35.199Z,55.10
2022-11-10T09:28:23.390Z,54.60
2022-11-10T09:31:10.177Z,54.70
2022-11-10T09:33:57.053Z,54.80
2022-11-10T09:36:43.870Z,55.20
2022-11-10T09:39:32.071Z,55.80
2022-11-10T09:42:31.426Z,56.20
2022-11-10T09:45:25.003Z,56.60
2022-11-10T09:48:18.901Z,58.20
2022-11-10T09:51:09.944Z,58.50
2022-11-10T09:53:59.708Z,58.10
2022-11-10T09:56:48.281Z,57.00
2022-11-10T09:59:36.459Z,56.90
2022-11-10T10:02:30.821Z,56.50
2022-11-10T10:05:39.674Z,56.50
2022-11-10T10:08:38.051Z,56.60
2022-11-10T10:11:40.020Z,56.60
2022-11-10T10:14:57.641Z,56.90
2022-11-10T10:18:01.062Z,56.70
2022-11-10T10:21:01.980Z,57.10
2022-11-10T10:24:11.523Z,56.70
2022-11-10T10:27:01.973Z,56.90
2022-11-10T10:29:50.874Z,57.00
2022-11-10T10:32:37.978Z,57.00
2022-11-10T10:35:24.804Z,57.10
2022-11-10T10:38:21.878Z,57.30
2022-11-10T10:41:20.923Z,57.10
2022-11-10T10:44:13.644Z,57.00
2022-11-10T10:47:03.143Z,57.10
2022-11-10T10:49:49.894Z,57.40
2022-11-10T10:52:36.921Z,57.50
2022-11-10T10:55:30.610Z,57.60
2022-11-10T10:58:24.405Z,57.70
2022-11-10T11:01:22.663Z,57.60
2022-11-10T11:04:28.620Z,57.60
2022-11-10T11:07:23.167Z,57.60
2022-11-10T11:10:20.959Z,57.80
2022-11-10T11:13:16.276Z,57.80
2022-11-10T11:16:05.253Z,57.90
2022-11-10T11:18:52.374Z,58.10
2022-11-10T11:21:52.910Z,58.10
2022-11-10T11:24:44.805Z,58.40
2022-11-10T11:27:39.292Z,58.40
2022-11-10T11:30:29.803Z,58.20
2022-11-10T11:33:39.362Z,57.90
2022-11-10T11:36:33.657Z,58.40
2022-11-10T11:39:39.447Z,58.50
2022-11-10T11:42:39.849Z,58.10
2022-11-10T11:45:34.730Z,57.90
2022-11-10T11:48:52.205Z,57.90
2022-11-10T11:51:45.489Z,57.00
2022-11-10T11:54:48.245Z,56.70
2022-11-10T11:57:45.910Z,57.10
2022-11-10T12:00:43.422Z,57.10
2022-11-10T12:03:48.917Z,57.00
2022-11-10T12:06:49.687Z,56.60
2022-11-10T12:09:44.921Z,56.90
2022-11-10T12:13:11.000Z,56.80
2022-11-10T12:16:04.066Z,56.80
2022-11-10T12:19:08.784Z,56.90
2022-11-10T12:22:02.203Z,57.20
2022-11-10T12:24:59.331Z,57.00
2022-11-10T12:27:51.069Z,56.70
2022-11-10T12:30:39.625Z,56.50
2022-11-10T12:33:36.556Z,56.50
2022-11-10T12:36:25.484Z,56.30
2022-11-10T12:39:19.895Z,56.40
2022-11-10T12:42:16.112Z,56.30
2022-11-10T12:45:05.907Z,55.90
2022-11-10T12:47:56.035Z,55.60
2022-11-10T12:50:50.198Z,55.60
2022-11-10T12:53:40.216Z,55.50
2022-11-10T12:56:34.210Z,55.50
2022-11-10T12:59:30.390Z,55.60
2022-11-10T13:02:27.210Z,55.90
2022-11-10T13:05:38.680Z,56.40
2022-11-10T13:08:30.554Z,56.40
2022-11-10T13:11:29.984Z,56.50
2022-11-10T13:14:27.176Z,56.30
2022-11-10T13:17:55.130Z,56.20
2022-11-10T13:20:53.522Z,56.30
2022-11-10T13:24:28.437Z,56.40
2022-11-10T13:27:52.331Z,56.00
2022-11-10T13:30:43.638Z,56.00
2022-11-10T13:33:40.393Z,56.20
2022-11-10T13:36:40.401Z,56.30
2022-11-10T13:39:30.291Z,56.40
2022-11-10T13:42:20.311Z,56.00
2022-11-10T13:45:29.826Z,56.00
2022-11-10T13:48:31.136Z,56.30
2022-11-10T13:51:28.979Z,56.50
2022-11-10T13:54:34.224Z,56.40
2022-11-10T13:57:31.517Z,56.50
2022-11-10T14:00:28.305Z,56.50
2022-11-10T14:03:48.753Z,56.50
2022-11-10T14:06:50.162Z,56.30
2022-11-10T14:09:40.631Z,56.30
2022-11-10T14:12:33.033Z,56.60
2022-11-10T14:15:23.394Z,56.40
2022-11-10T14:18:19.690Z,56.50
2022-11-10T14:21:08.157Z,56.50
2022-11-10T14:24:00.194Z,56.40
2022-11-10T14:26:51.944Z,56.40
2022-11-10T14:29:40.341Z,56.60
2022-11-10T14:32:27.715Z,56.50
2022-11-10T14:35:21.081Z,56.50
2022-11-10T14:38:20.588Z,56.30
2022-11-10T14:41:19.153Z,56.40
2022-11-10T14:44:08.070Z,56.50
2022-11-10T14:46:55.900Z,56.40
2022-11-10T14:49:43.916Z,56.30
2022-11-10T14:52:31.162Z,56.20
2022-11-10T14:55:21.345Z,56.20
2022-11-10T14:58:17.370Z,56.20
2022-11-10T15:01:05.915Z,56.30
2022-11-10T15:03:53.147Z,56.10
2022-11-10T15:06:44.503Z,56.70
2022-11-10T15:09:34.497Z,56.10
2022-11-10T15:12:27.834Z,56.00
2022-11-10T15:15:24.149Z,56.00
2022-11-10T15:18:26.587Z,56.10
2022-11-10T15:21:14.765Z,56.20
2022-11-10T15:24:05.761Z,56.20
2022-11-10T15:26:52.629Z,56.10
2022-11-10T15:29:39.238Z,56.10
2022-11-10T15:32:35.830Z,56.20
2022-11-10T15:35:30.024Z,56.30
2022-11-10T15:38:32.150Z,56.20
2022-11-10T15:41:27.616Z,56.40
2022-11-10T15:44:16.234Z,56.90
2022-11-10T15:47:03.164Z,56.50
2022-11-10T15:49:51.330Z,56.50
2022-11-10T15:52:45.485Z,56.40
2022-11-10T15:55:35.541Z,56.30
2022-11-10T15:58:24.897Z,56.00
2022-11-10T16:01:15.567Z,56.10
2022-11-10T16:04:02.432Z,55.90
2022-11-10T16:06:50.919Z,55.80
2022-11-10T16:09:37.625Z,55.60
2022-11-10T16:12:25.011Z,55.70
2022-11-10T16:15:19.395Z,55.60
2022-11-10T16:18:10.142Z,55.50
2022-11-10T16:20:57.579Z,55.40
2022-11-10T16:23:46.424Z,55.20
2022-11-10T16:26:35.438Z,55.30
2022-11-10T16:29:22.393Z,55.40
2022-11-10T16:32:10.930Z,55.40
2022-11-10T16:34:57.996Z,55.20
2022-11-10T16:37:45.148Z,55.10
2022-11-10T16:40:33.375Z,55.00
2022-11-10T16:43:20.652Z,55.10
2022-11-10T16:46:18.572Z,55.10
2022-11-10T16:49:08.121Z,55.20
2022-11-10T16:51:55.121Z,55.20
2022-11-10T16:54:41.903Z,55.30
2022-11-10T16:57:29.964Z,55.00
2022-11-10T17:00:18.207Z,54.90
2022-11-10T17:03:08.906Z,54.80
2022-11-10T17:05:56.102Z,55.00
2022-11-10T17:08:43.501Z,55.00
2022-11-10T17:11:30.429Z,54.90
2022-11-10T17:14:19.038Z,54.80
2022-11-10T17:17:05.832Z,54.90
2022-11-10T17:19:53.093Z,55.00
2022-11-10T17:22:40.223Z,54.80
2022-11-10T17:25:29.784Z,54.80
2022-11-10T17:28:18.013Z,54.70
2022-11-10T17:31:09.237Z,54.80
2022-11-10T17:33:56.074Z,54.90
2022-11-10T17:36:43.153Z,54.90
2022-11-10T17:39:30.018Z,54.90
2022-11-10T17:42:17.147Z,54.80
2022-11-10T17:45:04.119Z,55.00
2022-11-10T17:47:52.975Z,55.00
2022-11-10T17:50:41.156Z,55.10
2022-11-10T17:53:28.842Z,55.20
2022-11-10T17:56:15.719Z,55.20
2022-11-10T17:59:02.634Z,55.10
2022-11-10T18:01:49.334Z,55.00
2022-11-10T18:04:37.959Z,54.90
2022-11-10T18:07:25.073Z,54.90
2022-11-10T18:10:14.528Z,55.00
2022-11-10T18:13:01.717Z,54.90
2022-11-10T18:15:49.405Z,54.90
2022-11-10T18:18:36.775Z,55.00
2022-11-10T18:21:24.927Z,55.00
2022-11-10T18:24:11.854Z,54.90
2022-11-10T18:26:58.702Z,55.50
2022-11-10T18:29:45.579Z,54.90
2022-11-10T18:32:32.555Z,55.20
2022-11-10T18:35:19.328Z,55.30
2022-11-10T18:38:08.866Z,55.50
2022-11-10T18:40:55.921Z,55.70
2022-11-10T18:43:42.664Z,55.90
2022-11-10T18:46:29.388Z,56.00
2022-11-10T18:49:16.502Z,55.90
2022-11-10T18:52:03.707Z,55.80
2022-11-10T18:54:52.158Z,55.50
2022-11-10T18:57:39.485Z,55.40
2022-11-10T19:00:26.603Z,55.20
2022-11-10T19:03:14.236Z,55.30
2022-11-10T19:06:01.179Z,55.30
2022-11-10T19:08:48.723Z,55.30
2022-11-10T19:11:37.102Z,55.20
2022-11-10T19:14:24.158Z,55.10
2022-11-10T19:17:11.992Z,55.00
2022-11-10T19:19:58.894Z,55.00
2022-11-10T19:22:45.828Z,55.00
2022-11-10T19:25:33.329Z,55.00
2022-11-10T19:28:21.623Z,55.00
2022-11-10T19:31:11.337Z,55.00
2022-11-10T19:33:58.977Z,55.00
2022-11-10T19:36:46.324Z,54.80
2022-11-10T19:39:33.444Z,54.80
2022-11-10T19:42:20.322Z,54.80
2022-11-10T19:45:10.152Z,55.40
2022-11-10T19:47:59.772Z,54.70
2022-11-10T19:50:53.155Z,54.80
2022-11-10T19:53:40.464Z,54.90
2022-11-10T19:56:31.437Z,54.70
2022-11-10T19:59:21.178Z,54.70
2022-11-10T20:02:13.401Z,55.00
2022-11-10T20:05:16.346Z,55.00
2022-11-10T20:08:12.181Z,55.30
2022-11-10T20:11:04.634Z,55.40
2022-11-10T20:13:54.941Z,55.40
2022-11-10T20:16:42.255Z,55.20
2022-11-10T20:19:30.502Z,55.10
2022-11-10T20:22:17.399Z,55.00
2022-11-10T20:25:04.320Z,55.00
2022-11-10T20:27:51.023Z,54.90
2022-11-10T20:30:42.898Z,55.30
2022-11-10T20:33:30.333Z,55.40
2022-11-10T20:36:21.078Z,55.50
2022-11-10T20:39:07.889Z,55.40
2022-11-10T20:41:54.523Z,55.30
2022-11-10T20:44:41.653Z,55.10
2022-11-10T20:47:30.046Z,55.20
2022-11-10T20:50:20.479Z,55.40
2022-11-10T20:53:12.553Z,55.40
2022-11-10T20:56:01.981Z,55.10
2022-11-10T20:58:52.388Z,55.20
2022-11-10T21:01:39.088Z,55.10
2022-11-10T21:04:25.917Z,54.90
2022-11-10T21:07:12.909Z,55.00
2022-11-10T21:10:01.493Z,54.90
2022-11-10T21:12:50.798Z,55.00
2022-11-10T21:15:39.647Z,55.00
2022-11-10T21:18:28.159Z,55.00
2022-11-10T21:21:22.341Z,55.60
2022-11-10T21:24:10.180Z,55.10
2022-11-10T21:26:58.971Z,55.10
2022-11-10T21:29:46.493Z,55.10
2022-11-10T21:32:33.513Z,55.00
2022-11-10T21:35:20.877Z,55.00
2022-11-10T21:38:08.322Z,55.20
2022-11-10T21:40:55.405Z,55.20
2022-11-10T21:43:43.786Z,55.10
2022-11-10T21:46:30.399Z,54.90
2022-11-10T21:49:17.444Z,54.90
2022-11-10T21:52:04.379Z,54.90
2022-11-10T21:54:51.151Z,54.90
2022-11-10T21:57:37.836Z,54.80
2022-11-10T22:00:27.717Z,54.70
2022-11-10T22:03:14.755Z,54.70
2022-11-10T22:06:04.968Z,55.00
2022-11-10T22:08:53.126Z,55.10
2022-11-10T22:11:57.690Z,55.10
2022-11-10T22:15:12.118Z,55.00
2022-11-10T22:18:18.546Z,55.10
2022-11-10T22:21:06.110Z,54.90
2022-11-10T22:24:10.237Z,55.00
2022-11-10T22:26:58.163Z,54.70
2022-11-10T22:29:45.192Z,54.40
2022-11-10T22:32:32.030Z,54.30
2022-11-10T22:35:34.215Z,54.10
2022-11-10T22:38:21.216Z,54.10
2022-11-10T22:41:29.161Z,54.10
2022-11-10T22:44:17.487Z,54.30
2022-11-10T22:47:05.660Z,55.60
2022-11-10T22:49:52.398Z,55.40
2022-11-10T22:52:40.641Z,55.20
2022-11-10T22:55:27.856Z,54.90
2022-11-10T22:58:14.842Z,54.80
2022-11-10T23:01:06.337Z,54.70
2022-11-10T23:03:53.376Z,54.30
2022-11-10T23:06:40.581Z,53.40
2022-11-10T23:09:29.369Z,54.10
2022-11-10T23:12:17.289Z,53.40
2022-11-10T23:15:04.081Z,53.40
2022-11-10T23:17:51.257Z,53.30
2022-11-10T23:20:38.418Z,53.40
2022-11-10T23:23:25.740Z,53.40
2022-11-10T23:26:16.506Z,53.50
2022-11-10T23:29:03.623Z,53.60
2022-11-10T23:31:50.494Z,53.40
2022-11-10T23:34:37.455Z,53.30
2022-11-10T23:37:24.268Z,53.60
2022-11-10T23:40:12.021Z,53.90
2022-11-10T23:43:00.414Z,53.90
2022-11-10T23:46:05.923Z,53.60
2022-11-10T23:48:54.262Z,53.70
2022-11-10T23:51:41.025Z,53.70
2022-11-10T23:54:27.808Z,53.70
2022-11-10T23:57:14.611Z,53.70
